Time;durP1;ratioP1;P1;durP2;ratioP2;P2;SDS_P1;SDS_P2;PMS_P1;PMS_P2;Temp;Humidity;BMP_temperature;BMP_pressure;BME280_temperature;BME280_humidity;BME280_pressure;Samples;Min_cycle;Max_cycle;Signal;HPM_P1;HPM_P2
2022/01/16 04:31:38;;;;;;;32.40;18.10;;;;;;;5.19;57.63;99536.28;7593851;23;20240;-83
2022/01/16 04:35:00;;;;;;;27.63;17.13;;;;;;;5.26;57.67;99551.53;6829071;29;20207;-83
2022/01/16 04:38:21;;;;;;;31.57;17.77;;;;;;;5.28;57.60;99540.69;6836070;29;20725;-83
2022/01/16 04:45:22;;;;;;;31.87;17.03;;;;;;;5.02;57.51;99545.94;6820759;29;20193;-83
2022/01/16 04:48:49;;;;;;;30.67;15.57;;;;;;;4.77;57.64;99528.00;6819919;29;20217;-83
2022/01/16 04:52:10;;;;;;;31.97;17.23;;;;;;;4.78;57.80;99510.97;6819283;29;20240;-82
2022/01/16 04:55:32;;;;;;;26.90;16.27;;;;;;;4.94;58.10;99527.19;6818874;29;20208;-82
2022/01/16 04:58:53;;;;;;;36.00;19.03;;;;;;;5.00;58.47;99553.28;6819218;29;20211;-82
2022/01/16 05:02:15;;;;;;;34.20;19.40;;;;;;;4.93;57.48;99554.91;6818373;29;20733;-83
2022/01/16 05:05:38;;;;;;;31.07;17.93;;;;;;;4.98;58.01;99541.94;6818495;29;20217;-82
2022/01/16 05:08:59;;;;;;;37.23;19.07;;;;;;;5.00;57.37;99539.94;6818301;29;20251;-82
2022/01/16 05:12:28;;;;;;;31.50;16.87;;;;;;;5.09;57.28;99548.88;6819043;29;20233;-82
2022/01/16 05:19:30;;;;;;;34.97;18.07;;;;;;;5.05;57.44;99550.16;6818851;29;20560;-82
2022/01/16 05:22:53;;;;;;;39.00;19.23;;;;;;;5.19;57.10;99545.13;6818985;29;20237;-82
2022/01/16 05:26:17;;;;;;;37.37;20.23;;;;;;;5.05;57.31;99560.84;6818557;29;20261;-82
2022/01/16 05:29:39;;;;;;;33.37;18.77;;;;;;;5.24;56.83;99556.19;6818854;29;20221;-82
2022/01/16 05:33:00;;;;;;;34.23;18.07;;;;;;;5.01;57.17;99528.25;6817014;29;20246;-82
2022/01/16 05:36:22;;;;;;;33.53;18.00;;;;;;;4.97;57.52;99518.88;6818691;29;20215;-82
2022/01/16 05:39:47;;;;;;;37.80;20.00;;;;;;;5.08;57.23;99531.97;6818677;29;20214;-82
2022/01/16 05:43:09;;;;;;;39.73;20.20;;;;;;;4.96;57.50;99521.69;6819154;29;20261;-82
2022/01/16 05:46:30;;;;;;;36.70;19.60;;;;;;;5.17;57.42;99567.66;6817663;29;20211;-83
2022/01/16 05:49:52;;;;;;;34.30;19.20;;;;;;;4.99;57.07;99524.03;6818281;29;20207;-82
2022/01/16 05:53:14;;;;;;;33.90;18.13;;;;;;;5.03;57.00;99555.69;6818758;29;20318;-82
2022/01/16 05:56:37;;;;;;;40.47;19.90;;;;;;;4.55;57.34;99507.06;6818100;29;20211;-83
2022/01/16 05:59:59;;;;;;;32.27;18.77;;;;;;;4.67;57.71;99510.38;6819055;29;20652;-82
2022/01/16 06:03:21;;;;;;;33.43;19.20;;;;;;;4.81;57.45;99564.13;6818731;29;20234;-82
2022/01/16 06:06:42;;;;;;;33.67;19.50;;;;;;;4.91;57.93;99585.44;6818153;29;20291;-82
2022/01/16 06:10:05;;;;;;;34.53;19.00;;;;;;;5.18;57.03;99561.34;6818949;29;20226;-82
2022/01/16 06:13:28;;;;;;;37.47;18.73;;;;;;;5.14;56.64;99584.00;6818186;29;20244;-82
2022/01/16 06:16:49;;;;;;;33.60;19.53;;;;;;;5.12;57.18;99581.47;6818541;29;20215;-82
2022/01/16 06:20:11;;;;;;;30.93;19.00;;;;;;;5.17;56.41;99589.03;6819050;29;20720;-83
2022/01/16 06:23:32;;;;;;;33.10;19.70;;;;;;;4.86;57.10;99598.38;6819128;29;20217;-82
2022/01/16 06:26:54;;;;;;;32.40;18.90;;;;;;;5.04;57.14;99605.44;6818954;29;20221;-82
2022/01/16 06:30:17;;;;;;;32.33;18.43;;;;;;;4.62;56.91;99590.09;6819302;29;20208;-82
2022/01/16 06:33:39;;;;;;;29.20;17.43;;;;;;;4.82;56.96;99613.88;6826289;29;20429;-84
2022/01/16 06:37:00;;;;;;;28.60;17.97;;;;;;;4.80;56.91;99621.22;6825519;29;20670;-82
2022/01/16 06:40:22;;;;;;;29.07;17.37;;;;;;;4.31;57.44;99565.50;6814659;29;20208;-83
2022/01/16 06:43:44;;;;;;;26.83;17.00;;;;;;;4.58;57.47;99610.06;6813410;29;20210;-84
2022/01/16 06:47:07;;;;;;;30.17;17.57;;;;;;;4.37;58.06;99602.28;6816179;29;20222;-82
2022/01/16 06:50:28;;;;;;;28.83;16.80;;;;;;;4.46;56.95;99625.44;6815767;29;20224;-82
2022/01/16 06:53:53;;;;;;;23.93;15.57;;;;;;;4.56;56.61;99639.59;6815677;29;20235;-83
2022/01/16 06:57:15;;;;;;;23.73;14.90;;;;;;;4.10;56.54;99615.59;6816885;29;20244;-82
2022/01/16 07:00:36;;;;;;;28.00;15.97;;;;;;;4.23;56.47;99645.47;6817402;29;20302;-82
2022/01/16 07:03:59;;;;;;;25.37;15.97;;;;;;;3.98;55.96;99602.56;6817326;29;20211;-82
2022/01/16 07:07:21;;;;;;;27.70;16.30;;;;;;;4.33;56.86;99654.31;6817104;29;20224;-81
2022/01/16 07:10:42;;;;;;;31.03;17.10;;;;;;;4.15;57.75;99631.16;6816096;29;20257;-82
2022/01/16 07:14:04;;;;;;;32.73;17.63;;;;;;;3.87;57.04;99648.06;6815783;29;20233;-87
2022/01/16 07:17:26;;;;;;;32.03;18.03;;;;;;;3.83;58.28;99654.69;6816848;29;20214;-81
2022/01/16 07:20:49;;;;;;;33.40;18.90;;;;;;;3.64;58.12;99642.22;6816924;29;20218;-82
2022/01/16 07:24:15;;;;;;;27.50;15.97;;;;;;;4.20;57.92;99653.75;6818155;29;20210;-81
2022/01/16 07:27:37;;;;;;;33.07;18.43;;;;;;;3.90;57.14;99679.81;6822686;29;20836;-81
2022/01/16 07:30:58;;;;;;;27.13;17.23;;;;;;;3.87;57.62;99661.41;6821057;29;20281;-80
2022/01/16 07:34:20;;;;;;;27.17;17.10;;;;;;;3.87;56.95;99662.25;6822043;29;20222;-81
2022/01/16 07:37:43;;;;;;;26.50;16.57;;;;;;;4.25;56.30;99683.53;6823303;29;20210;-82
2022/01/16 07:41:04;;;;;;;29.43;18.90;;;;;;;3.91;56.96;99634.34;6821657;29;20230;-82
2022/01/16 07:44:26;;;;;;;28.43;17.57;;;;;;;3.60;58.18;99685.31;6821723;29;20209;-81
2022/01/16 07:47:47;;;;;;;30.90;19.60;;;;;;;3.65;58.83;99694.56;6821810;29;20206;-80
2022/01/16 07:51:09;;;;;;;31.67;18.93;;;;;;;4.05;58.52;99694.38;6791207;29;20232;-81
2022/01/16 07:54:32;;;;;;;30.43;17.80;;;;;;;3.86;57.94;99681.06;6768398;29;20203;-82
2022/01/16 07:57:55;;;;;;;32.13;20.17;;;;;;;4.42;57.12;99706.81;6781238;29;20215;-81
2022/01/16 08:01:17;;;;;;;31.23;18.27;;;;;;;4.78;56.34;99708.66;6768677;29;20239;-82
2022/01/16 08:04:38;;;;;;;29.03;17.03;;;;;;;4.77;55.06;99688.28;6787836;29;20206;-83
2022/01/16 08:08:00;;;;;;;27.73;16.90;;;;;;;4.97;54.81;99710.41;6779157;29;20227;-81
2022/01/16 08:11:23;;;;;;;27.67;17.53;;;;;;;4.64;55.43;99695.78;6768655;29;20234;-81
2022/01/16 08:14:45;;;;;;;26.33;17.43;;;;;;;4.50;55.66;99674.06;6767824;29;20217;-81
2022/01/16 08:18:06;;;;;;;26.37;16.67;;;;;;;4.37;55.97;99694.91;6767171;29;20217;-79
2022/01/16 08:21:28;;;;;;;29.40;17.27;;;;;;;4.74;55.57;99727.81;6791519;29;20250;-79
2022/01/16 08:24:49;;;;;;;25.37;16.97;;;;;;;4.96;54.76;99714.91;6792154;29;20264;-80
2022/01/16 08:28:13;;;;;;;28.47;17.20;;;;;;;5.05;54.92;99723.88;6793511;29;20211;-81
2022/01/16 08:31:35;;;;;;;25.10;17.50;;;;;;;5.03;54.63;99721.38;6792315;29;20722;-80
2022/01/16 08:34:56;;;;;;;30.10;18.80;;;;;;;4.40;56.62;99745.31;6790730;29;20212;-80
2022/01/16 08:38:18;;;;;;;36.90;24.60;;;;;;;4.17;57.98;99739.47;6794278;29;20259;-81
2022/01/16 08:41:39;;;;;;;36.27;22.80;;;;;;;4.41;57.53;99722.97;6802131;29;20228;-86
2022/01/16 08:45:02;;;;;;;30.63;19.37;;;;;;;4.77;56.69;99716.84;6809777;29;20207;-82
2022/01/16 08:48:24;;;;;;;32.20;19.13;;;;;;;4.54;56.64;99743.03;6809997;29;20219;-82
2022/01/16 08:51:46;;;;;;;30.40;19.93;;;;;;;4.84;56.65;99752.66;6811360;29;20234;-81
2022/01/16 08:55:09;;;;;;;30.77;19.60;;;;;;;4.27;57.48;99753.66;6808353;29;20220;-83
2022/01/16 08:58:31;;;;;;;32.40;20.17;;;;;;;4.31;57.93;99759.53;6779213;29;20211;-83
2022/01/16 09:01:54;;;;;;;29.27;18.43;;;;;;;5.10;55.83;99762.53;6766924;29;20230;-82
2022/01/16 09:05:16;;;;;;;29.53;20.00;;;;;;;5.22;55.60;99758.69;6765895;29;20205;-82
2022/01/16 09:08:38;;;;;;;29.10;19.20;;;;;;;5.49;54.80;99774.69;6765596;29;20215;-83
2022/01/16 09:12:00;;;;;;;31.00;22.17;;;;;;;5.13;54.07;99713.28;6765700;29;20247;-83
2022/01/16 09:15:22;;;;;;;30.70;20.00;;;;;;;5.29;54.79;99742.88;6765158;29;20236;-83
2022/01/16 09:18:45;;;;;;;29.87;18.67;;;;;;;5.39;54.06;99738.31;6764974;29;20569;-83
2022/01/16 09:22:07;;;;;;;31.17;20.73;;;;;;;5.53;54.74;99804.66;6764803;29;20693;-84
2022/01/16 09:25:28;;;;;;;32.80;22.07;;;;;;;5.07;55.59;99780.72;6764998;29;20212;-87
2022/01/16 09:28:50;;;;;;;30.03;19.33;;;;;;;5.52;54.48;99794.97;6765190;29;20204;-85
2022/01/16 09:32:13;;;;;;;30.30;20.27;;;;;;;5.22;55.80;99809.47;6763259;29;20249;-84
2022/01/16 09:35:36;;;;;;;34.17;20.30;;;;;;;5.23;55.99;99815.66;6764411;29;20283;-84
2022/01/16 09:38:58;;;;;;;32.13;20.83;;;;;;;5.57;55.34;99816.75;6764111;29;20231;-84
2022/01/16 09:42:22;;;;;;;32.47;19.33;;;;;;;5.35;55.38;99779.72;6764728;29;20300;-84
2022/01/16 09:45:44;;;;;;;32.97;20.33;;;;;;;5.37;55.02;99829.38;6764215;29;20216;-86
2022/01/16 09:49:06;;;;;;;31.20;21.30;;;;;;;5.68;55.59;99814.75;6763050;29;20210;-85
2022/01/16 09:52:29;;;;;;;29.83;20.70;;;;;;;5.79;54.65;99833.22;6763689;29;20236;-88
2022/01/16 09:55:51;;;;;;;33.00;20.67;;;;;;;5.41;54.30;99782.63;6764328;29;20272;-84
2022/01/16 09:59:12;;;;;;;31.40;21.00;;;;;;;5.85;54.55;99835.34;6764871;29;20221;-84
2022/01/16 10:02:34;;;;;;;34.07;22.03;;;;;;;5.81;54.73;99852.72;6763955;29;20235;-86
2022/01/16 10:06:09;;;;;;;30.37;19.90;;;;;;;5.76;54.77;99824.66;6780570;29;20223;-86
2022/01/16 10:09:34;;;;;;;34.03;21.33;;;;;;;5.96;54.74;99831.63;6789888;29;20229;-88
2022/01/16 10:13:04;;;;;;;34.00;22.87;;;;;;;6.11;54.31;99816.72;6789695;29;20239;-87
2022/01/16 10:16:28;;;;;;;34.53;21.27;;;;;;;6.16;54.64;99815.28;6788957;29;20629;-85
2022/01/16 10:19:58;;;;;;;36.67;22.03;;;;;;;6.29;54.22;99830.94;6789557;29;20217;-87
2022/01/16 10:23:21;;;;;;;33.10;21.57;;;;;;;6.11;54.98;99841.66;6789093;29;20666;-87
2022/01/16 10:26:44;;;;;;;32.50;21.17;;;;;;;5.85;54.75;99821.13;6788384;29;20215;-83
2022/01/16 10:30:08;;;;;;;32.00;20.23;;;;;;;5.33;55.96;99781.69;6789496;29;20210;-86
2022/01/16 10:33:35;;;;;;;30.97;21.00;;;;;;;6.29;55.80;99813.06;6787989;29;20765;-84
2022/01/16 10:36:56;;;;;;;28.97;20.53;;;;;;;6.27;54.42;99790.09;6790543;29;20642;-84
2022/01/16 10:40:21;;;;;;;78.50;37.60;;;;;;;6.39;55.79;99765.63;6789740;29;20209;-84
2022/01/16 10:43:46;;;;;;;34.30;22.83;;;;;;;6.56;53.80;99812.13;6790383;29;20194;-84
2022/01/16 10:52:44;;;;;;;32.43;22.77;;;;;;;6.39;58.10;99778.16;6655776;29;20332;-82
2022/01/16 11:05:06;;;;;;;38.20;23.33;;;;;;;7.24;55.41;99833.53;6658467;29;20213;-82
2022/01/16 11:25:10;;;;;;;33.87;22.50;;;;;;;6.68;53.79;99819.75;6827552;23;20310;-86
2022/01/16 11:28:32;;;;;;;36.30;22.80;;;;;;;6.12;54.15;99838.00;6817185;29;20260;-85
2022/01/16 11:31:57;;;;;;;34.13;22.20;;;;;;;6.75;54.08;99831.53;6815073;29;20204;-86
2022/01/16 11:35:19;;;;;;;35.60;23.23;;;;;;;7.18;52.51;99822.63;6816411;29;20233;-87
2022/01/16 11:38:43;;;;;;;33.50;21.23;;;;;;;7.25;51.71;99835.19;6816959;29;20212;-87
2022/01/16 11:42:15;;;;;;;34.30;22.33;;;;;;;6.83;52.78;99850.34;6816927;29;20206;-86
2022/01/16 11:45:45;;;;;;;35.13;22.87;;;;;;;6.14;55.51;99861.94;6815319;29;20227;-86
2022/01/16 11:49:08;;;;;;;35.17;24.63;;;;;;;5.84;56.21;99849.72;6815602;29;20265;-88
2022/01/16 11:52:38;;;;;;;34.47;21.97;;;;;;;6.45;55.25;99856.06;6807470;29;20262;-83
2022/01/16 11:56:00;;;;;;;35.73;24.70;;;;;;;6.29;55.65;99838.97;6814391;29;20572;-87
2022/01/16 11:59:25;;;;;;;38.23;26.10;;;;;;;6.55;55.78;99837.22;6815516;29;20299;-84
2022/01/16 12:02:48;;;;;;;36.07;23.83;;;;;;;6.83;54.82;99849.53;6816205;29;20717;-86
2022/01/16 12:06:32;;;;;;;41.63;26.27;;;;;;;6.65;55.24;99843.31;6815986;29;20238;-87
2022/01/16 12:09:57;;;;;;;42.77;26.30;;;;;;;7.05;54.15;99843.63;6806901;29;20352;-83
2022/01/16 12:13:44;;;;;;;46.57;26.37;;;;;;;6.85;55.48;99863.59;6820969;29;20221;-84
2022/01/16 12:17:25;;;;;;;45.80;26.90;;;;;;;6.71;56.38;99856.94;6820607;29;20625;-85
2022/01/16 12:20:47;;;;;;;44.60;25.13;;;;;;;7.00;55.48;99827.16;6819940;29;20192;-84
2022/01/16 12:24:09;;;;;;;40.80;26.00;;;;;;;7.24;54.81;99822.78;6819582;29;20213;-85
2022/01/16 12:27:47;;;;;;;43.13;25.87;;;;;;;7.53;54.02;99828.66;6820969;29;20235;-84
2022/01/16 12:31:33;;;;;;;44.00;27.50;;;;;;;7.84;53.72;99845.03;6818643;29;20198;-85
2022/01/16 12:34:56;;;;;;;37.87;24.03;;;;;;;7.70;54.17;99838.44;6819028;29;20221;-85
2022/01/16 12:38:20;;;;;;;40.10;25.10;;;;;;;7.43;54.73;99832.47;6823186;29;20209;-85
2022/01/16 12:41:45;;;;;;;38.07;24.37;;;;;;;7.39;55.33;99841.81;6822166;29;20215;-85
2022/01/16 12:45:07;;;;;;;43.33;24.80;;;;;;;7.19;57.18;99838.53;6819284;29;20567;-86
2022/01/16 12:48:29;;;;;;;48.23;26.37;;;;;;;7.61;56.20;99842.09;6818854;29;20218;-86
2022/01/16 12:51:53;;;;;;;39.97;24.23;;;;;;;7.56;55.38;99820.28;6818804;29;20685;-86
2022/01/16 12:55:16;;;;;;;37.53;24.70;;;;;;;7.41;55.51;99837.13;6816138;29;20273;-86
2022/01/16 12:58:37;;;;;;;35.63;22.07;;;;;;;7.63;55.24;99834.72;6819740;29;20696;-85
2022/01/16 13:02:01;;;;;;;30.03;19.93;;;;;;;7.82;55.10;99833.63;6815014;29;20224;-86
2022/01/16 13:05:23;;;;;;;35.43;21.83;;;;;;;8.01;54.76;99838.72;6792532;29;20248;-83
2022/01/16 13:09:01;;;;;;;31.07;21.30;;;;;;;7.82;54.40;99841.66;6792638;29;20584;-85
2022/01/16 13:12:22;;;;;;;31.30;20.90;;;;;;;7.92;53.19;99828.97;6792843;29;20213;-85
2022/01/16 13:15:44;;;;;;;27.17;17.27;;;;;;;7.80;54.44;99841.84;6791947;29;20229;-85
2022/01/16 13:19:11;;;;;;;30.80;19.10;;;;;;;7.86;53.38;99818.88;6792727;29;20209;-84
2022/01/16 13:22:37;;;;;;;25.10;16.07;;;;;;;7.72;54.00;99835.59;6792282;29;20218;-84
2022/01/16 13:26:00;;;;;;;21.97;16.07;;;;;;;7.97;52.81;99832.84;6792992;29;20219;-85
2022/01/16 13:29:22;;;;;;;18.10;12.97;;;;;;;7.92;53.19;99853.13;6792926;29;20225;-84
2022/01/16 13:32:53;;;;;;;20.83;13.90;;;;;;;8.06;52.84;99849.78;6791594;29;20697;-85
2022/01/16 13:36:20;;;;;;;19.77;13.90;;;;;;;8.31;52.50;99854.28;6792364;29;20246;-85
2022/01/16 13:39:47;;;;;;;20.50;15.30;;;;;;;8.53;52.04;99850.91;6791931;29;20189;-85
2022/01/16 13:43:12;;;;;;;23.83;15.83;;;;;;;8.35;51.85;99848.41;6798955;29;20206;-86
2022/01/16 13:46:35;;;;;;;26.80;15.87;;;;;;;8.04;52.61;99833.00;6791285;29;20222;-87
2022/01/16 13:49:56;;;;;;;24.77;15.77;;;;;;;8.10;52.78;99852.00;6792831;29;20220;-85
2022/01/16 13:53:21;;;;;;;35.23;22.57;;;;;;;8.37;52.05;99842.88;6804294;29;20231;-86
2022/01/16 13:56:51;;;;;;;27.63;18.20;;;;;;;8.09;52.38;99854.84;6818688;29;20315;-86
2022/01/16 14:00:15;;;;;;;20.33;13.07;;;;;;;8.25;51.75;99838.81;6818738;29;20643;-86
2022/01/16 14:03:47;;;;;;;20.63;12.43;;;;;;;8.24;52.09;99862.13;6817702;29;20224;-88
2022/01/16 14:07:09;;;;;;;17.73;12.10;;;;;;;8.14;51.94;99869.47;6817945;29;20247;-86
2022/01/16 14:10:38;;;;;;;17.23;11.57;;;;;;;8.03;52.83;99856.38;6814890;29;20223;-87
2022/01/16 14:14:01;;;;;;;16.70;11.77;;;;;;;8.21;52.06;99867.84;6790903;29;20237;-85
2022/01/16 14:17:43;;;;;;;14.87;10.90;;;;;;;8.28;51.41;99871.56;6799459;29;20229;-85
2022/01/16 14:24:41;;;;;;;15.13;11.50;;;;;;;8.67;51.29;99890.59;6816883;29;20220;-84
2022/01/16 14:28:03;;;;;;;15.27;11.20;;;;;;;8.52;51.10;99895.78;6819373;29;20233;-84
2022/01/16 14:31:24;;;;;;;16.53;11.33;;;;;;;8.53;50.92;99896.59;6821462;29;20579;-85
2022/01/16 14:34:48;;;;;;;16.90;11.00;;;;;;;8.56;51.51;99898.97;6821742;29;20582;-85
2022/01/16 14:38:17;;;;;;;23.33;19.03;;;;;;;8.17;52.09;99916.66;6814620;29;20235;-85
2022/01/16 14:41:43;;;;;;;16.03;11.53;;;;;;;8.61;51.16;99913.59;6824688;29;20208;-83
2022/01/16 14:45:06;;;;;;;27.77;12.63;;;;;;;8.72;50.56;99890.94;6822566;29;20709;-84
2022/01/16 14:48:28;;;;;;;15.57;11.80;;;;;;;8.33;51.48;99901.47;6822822;29;20214;-84
2022/01/16 14:51:51;;;;;;;16.67;11.30;;;;;;;8.74;50.72;99910.44;6826619;29;20230;-86
2022/01/16 14:55:13;;;;;;;17.57;11.70;;;;;;;8.66;51.26;99903.19;6829411;29;20229;-85
2022/01/16 14:58:34;;;;;;;16.33;11.87;;;;;;;8.53;51.19;99907.38;6823562;29;20212;-86
2022/01/16 15:01:56;;;;;;;19.83;13.70;;;;;;;8.66;51.05;99919.31;6821026;29;20213;-86
2022/01/16 15:05:17;;;;;;;17.67;12.60;;;;;;;8.82;50.65;99916.66;6819568;29;20614;-85
2022/01/16 15:08:43;;;;;;;17.50;12.47;;;;;;;8.99;50.02;99903.03;6820484;29;20213;-85
2022/01/16 15:12:05;;;;;;;14.97;11.60;;;;;;;9.18;49.20;99915.31;6819448;29;20183;-86
2022/01/16 15:15:27;;;;;;;13.73;10.50;;;;;;;9.21;49.06;99888.09;6818789;29;20230;-86
2022/01/16 15:18:48;;;;;;;11.83;8.93;;;;;;;9.10;48.68;99896.50;6818826;29;20243;-86
2022/01/16 15:22:12;;;;;;;15.60;10.43;;;;;;;8.72;49.62;99899.84;6818408;29;20230;-86
2022/01/16 15:25:35;;;;;;;13.90;10.60;;;;;;;8.38;50.16;99895.59;6818876;29;20643;-86
2022/01/16 15:28:57;;;;;;;12.37;8.87;;;;;;;8.14;50.79;99896.31;6819558;29;20212;-85
2022/01/16 15:32:25;;;;;;;10.63;8.87;;;;;;;8.82;49.63;99913.97;6818567;29;20216;-88
2022/01/16 15:35:47;;;;;;;14.63;9.63;;;;;;;8.81;48.92;99912.28;6817009;29;20244;-85
2022/01/16 15:39:09;;;;;;;12.10;9.17;;;;;;;9.19;47.63;99896.31;6818784;29;20206;-85
2022/01/16 15:42:32;;;;;;;13.77;10.20;;;;;;;9.15;47.57;99891.44;6818008;29;20206;-85
2022/01/16 15:45:55;;;;;;;16.17;10.20;;;;;;;8.73;48.42;99908.75;6818763;29;20232;-85
2022/01/16 15:49:16;;;;;;;10.37;8.70;;;;;;;9.05;48.06;99891.59;6822199;29;20210;-85
2022/01/16 15:52:38;;;;;;;11.30;8.80;;;;;;;8.68;48.12;99903.88;6823041;29;20559;-86
2022/01/16 15:56:00;;;;;;;16.17;12.07;;;;;;;8.46;49.55;99944.81;6808191;29;20236;-86
2022/01/16 15:59:23;;;;;;;12.00;9.53;;;;;;;8.45;49.51;99955.72;6814198;29;20206;-85
2022/01/16 16:02:46;;;;;;;12.90;9.80;;;;;;;8.36;49.94;99981.75;6821209;29;20211;-86
2022/01/16 16:06:12;;;;;;;13.97;10.97;;;;;;;8.99;48.66;99978.34;6819470;29;20290;-87
2022/01/16 16:09:45;;;;;;;14.27;10.97;;;;;;;9.24;47.94;99958.53;6817928;29;20220;-86
2022/01/16 16:13:07;;;;;;;15.10;11.60;;;;;;;9.24;47.30;99944.22;6816413;29;20214;-87
2022/01/16 16:16:30;;;;;;;12.93;10.60;;;;;;;9.38;47.52;99955.16;6819090;29;20230;-87
2022/01/16 16:19:52;;;;;;;12.50;9.60;;;;;;;9.28;47.56;99983.25;6808461;29;20569;-86
2022/01/16 16:23:14;;;;;;;14.20;10.33;;;;;;;9.22;47.87;99981.25;6794008;29;20215;-86
2022/01/16 16:26:35;;;;;;;15.17;10.90;;;;;;;9.51;47.22;99968.94;6794582;29;20616;-89
2022/01/16 16:29:58;;;;;;;13.20;9.97;;;;;;;9.29;47.18;99983.09;6808531;29;20210;-85
2022/01/16 16:33:22;;;;;;;14.03;9.83;;;;;;;8.37;49.35;99994.16;6816249;29;20216;-87
2022/01/16 16:36:44;;;;;;;15.57;11.63;;;;;;;8.07;50.96;99992.00;6809683;29;20219;-88
2022/01/16 16:40:07;;;;;;;17.67;11.40;;;;;;;9.12;49.60;99975.19;6817766;29;20683;-85
2022/01/16 16:43:29;;;;;;;16.07;11.47;;;;;;;8.55;51.23;100002.13;6819057;29;20701;-84
2022/01/16 16:46:50;;;;;;;18.70;13.37;;;;;;;9.27;49.48;100013.88;6814703;29;20223;-83
2022/01/16 16:50:15;;;;;;;16.87;11.93;;;;;;;9.08;50.02;100012.34;6819930;29;20223;-83
2022/01/16 16:53:38;;;;;;;17.57;11.10;;;;;;;9.29;49.18;100012.69;6819622;29;20233;-87
2022/01/16 17:00:31;;;;;;;17.20;12.30;;;;;;;9.09;48.64;100000.56;6767400;29;20219;-80
2022/01/16 17:03:53;;;;;;;16.33;12.40;;;;;;;9.55;47.81;100013.34;6766271;29;20212;-78
2022/01/16 17:07:17;;;;;;;19.30;14.43;;;;;;;9.62;47.74;100018.91;6790807;29;20218;-78
2022/01/16 17:10:39;;;;;;;19.53;13.73;;;;;;;9.16;48.29;99960.38;6766317;29;20313;-79
2022/01/16 17:14:04;;;;;;;23.00;15.83;;;;;;;9.19;49.69;100030.00;6764648;29;20725;-80
2022/01/16 17:29:43;;;;;;;26.80;18.13;;;;;;;8.88;50.49;100055.84;6766861;29;20235;-81
2022/01/16 17:33:05;;;;;;;39.60;21.63;;;;;;;8.63;51.19;100046.03;6765766;29;20610;-81
2022/01/16 17:36:27;;;;;;;170.87;100.50;;;;;;;8.70;50.43;100005.84;6764008;29;20231;-82
2022/01/16 17:39:49;;;;;;;100.43;61.23;;;;;;;8.21;52.71;100066.66;6766020;29;20586;-81
2022/01/16 17:43:11;;;;;;;46.43;29.60;;;;;;;8.34;52.77;100068.88;6769037;29;20210;-82
2022/01/16 17:46:34;;;;;;;39.63;25.57;;;;;;;8.54;52.40;100068.47;6747856;29;20212;-84
2022/01/16 17:49:58;;;;;;;49.50;33.17;;;;;;;8.49;52.70;100075.34;6741397;29;20232;-84
2022/01/16 17:53:20;;;;;;;37.00;25.40;;;;;;;8.43;52.78;100078.69;6744710;29;20225;-82
2022/01/16 17:56:42;;;;;;;34.37;19.73;;;;;;;8.22;53.19;100054.91;6749178;29;20271;-83
2022/01/16 18:00:05;;;;;;;34.30;22.83;;;;;;;8.43;53.52;100084.88;6770911;29;20247;-84
2022/01/16 18:03:28;;;;;;;44.20;31.57;;;;;;;8.25;53.87;100102.09;6773325;29;20211;-86
2022/01/16 18:06:50;;;;;;;35.63;23.80;;;;;;;8.41;53.24;100089.59;6759436;29;20211;-83
2022/01/16 18:10:14;;;;;;;32.57;22.60;;;;;;;8.56;53.09;100106.81;6766453;29;20253;-82
2022/01/16 18:13:36;;;;;;;38.77;24.93;;;;;;;8.49;53.66;100102.22;6746197;29;20623;-83
2022/01/16 18:16:57;;;;;;;37.67;24.90;;;;;;;8.35;53.89;100098.28;6774238;29;20589;-83
2022/01/16 18:20:23;;;;;;;32.50;20.40;;;;;;;8.60;53.39;100088.50;6763114;29;20233;-82
2022/01/16 18:23:44;;;;;;;31.67;21.30;;;;;;;8.65;53.44;100102.28;6772499;29;20344;-84
2022/01/16 18:27:07;;;;;;;33.80;22.90;;;;;;;8.22;53.11;100019.97;6765687;29;20222;-88
2022/01/16 18:30:28;;;;;;;28.13;19.03;;;;;;;8.72;52.71;100103.34;6774155;29;20223;-86
2022/01/16 18:33:50;;;;;;;30.13;18.97;;;;;;;8.48;53.32;100096.00;6771867;29;20217;-86
2022/01/16 18:37:13;;;;;;;31.10;19.00;;;;;;;8.55;53.29;100106.97;6772617;29;20211;-83
2022/01/16 18:40:35;;;;;;;31.40;20.70;;;;;;;8.06;53.35;100019.00;6770230;29;20217;-83
2022/01/16 18:43:57;;;;;;;26.80;18.00;;;;;;;8.70;52.45;100092.75;6772213;29;20220;-83
2022/01/16 18:47:20;;;;;;;29.87;20.33;;;;;;;8.42;53.43;100080.53;6766246;29;20214;-84
2022/01/16 18:50:44;;;;;;;33.03;22.17;;;;;;;8.63;52.71;100094.41;6758697;29;20224;-82
2022/01/16 18:54:08;;;;;;;34.30;20.17;;;;;;;8.42;53.26;100079.69;6763606;29;20242;-83
2022/01/16 18:57:29;;;;;;;32.23;21.07;;;;;;;8.65;52.69;100092.38;6767674;29;20845;-83
2022/01/16 19:00:51;;;;;;;36.10;23.43;;;;;;;8.31;53.59;100104.16;6765507;29;20215;-84
2022/01/16 19:04:18;;;;;;;31.97;22.03;;;;;;;7.92;54.51;100076.84;6752550;29;20229;-84
2022/01/16 19:07:41;;;;;;;34.80;23.43;;;;;;;8.18;54.17;100115.28;6740083;29;20228;-84
2022/01/16 19:11:04;;;;;;;32.20;22.17;;;;;;;8.38;53.88;100106.03;6756942;29;20611;-84
2022/01/16 19:14:26;;;;;;;28.67;19.63;;;;;;;8.15;53.56;100064.56;6759661;29;20242;-85
2022/01/16 19:17:47;;;;;;;29.60;19.50;;;;;;;8.43;53.49;100095.63;6762593;29;20234;-85
2022/01/16 19:21:09;;;;;;;32.57;22.00;;;;;;;8.30;53.97;100119.41;6761943;29;20591;-84
2022/01/16 19:24:31;;;;;;;32.70;21.50;;;;;;;8.23;54.54;100114.84;6767980;29;20213;-84
2022/01/16 19:27:58;;;;;;;33.17;20.97;;;;;;;7.57;55.53;100051.91;6777119;29;20245;-85
2022/01/16 19:31:20;;;;;;;29.60;20.10;;;;;;;7.69;54.29;100032.72;6758075;29;20216;-84
2022/01/16 19:34:41;;;;;;;32.47;21.03;;;;;;;7.95;54.38;100048.84;6753781;29;20226;-84
2022/01/16 19:38:04;;;;;;;31.97;21.00;;;;;;;8.31;54.44;100117.59;6766626;29;20220;-84
2022/01/16 19:41:26;;;;;;;27.77;20.10;;;;;;;8.11;53.86;100079.31;6755252;29;20219;-84
2022/01/16 19:44:49;;;;;;;40.97;26.80;;;;;;;7.85;55.12;100132.16;6760155;29;20210;-84
2022/01/16 19:48:12;;;;;;;35.80;23.67;;;;;;;7.04;56.37;100083.25;6775757;29;20237;-84
2022/01/16 19:51:34;;;;;;;31.90;20.43;;;;;;;7.53;55.37;100064.78;6775867;29;20294;-84
2022/01/16 19:54:56;;;;;;;25.80;17.43;;;;;;;7.80;54.65;100078.09;6771603;29;20711;-84
2022/01/16 19:58:18;;;;;;;27.03;17.93;;;;;;;8.04;53.88;100089.00;6750206;29;20602;-85
2022/01/16 20:01:41;;;;;;;25.37;17.13;;;;;;;8.00;53.54;100063.47;6749180;29;20210;-85
2022/01/16 20:05:04;;;;;;;28.43;18.50;;;;;;;7.76;53.71;100030.22;6749829;29;20224;-84
2022/01/16 20:08:27;;;;;;;29.83;19.27;;;;;;;8.14;53.77;100119.28;6772220;29;20220;-84
2022/01/16 20:11:49;;;;;;;34.10;20.30;;;;;;;8.27;52.90;100090.19;6774870;29;20275;-85
2022/01/16 20:15:17;;;;;;;28.17;17.80;;;;;;;7.85;54.67;100124.09;6770740;29;20323;-84
2022/01/16 20:18:41;;;;;;;29.00;18.00;;;;;;;8.00;54.02;100135.13;6768050;29;20223;-84
2022/01/16 20:22:17;;;;;;;19.37;14.20;;;;;;;8.05;53.73;100117.56;6776572;29;20226;-85
2022/01/16 20:25:40;;;;;;;16.37;12.50;;;;;;;8.18;53.32;100135.91;6694695;29;20344;-84
2022/01/16 20:29:02;;;;;;;17.27;13.13;;;;;;;8.08;52.24;100093.03;6696325;29;20234;-84
2022/01/16 20:32:23;;;;;;;18.63;13.50;;;;;;;8.43;52.33;100144.00;6695199;29;20218;-84
2022/01/16 20:35:46;;;;;;;29.70;17.43;;;;;;;7.86;53.87;100165.22;6694460;29;20238;-83
2022/01/16 20:39:08;;;;;;;23.23;16.43;;;;;;;7.69;54.47;100150.84;6695649;29;20227;-83
2022/01/16 20:42:30;;;;;;;20.30;14.10;;;;;;;7.97;53.92;100152.41;6694858;29;20224;-83
2022/01/16 20:45:53;;;;;;;17.10;13.17;;;;;;;8.06;53.95;100167.59;6691025;29;20312;-83
2022/01/16 20:49:24;;;;;;;14.77;11.00;;;;;;;7.97;53.86;100168.53;6688104;29;20239;-85
2022/01/16 20:52:54;;;;;;;16.10;12.57;;;;;;;8.40;52.87;100170.38;6644367;29;20233;-84
2022/01/16 20:56:16;;;;;;;22.50;15.80;;;;;;;8.77;52.06;100166.38;6685851;29;20229;-83
2022/01/16 20:59:38;;;;;;;25.50;16.87;;;;;;;8.59;52.57;100146.81;6684697;29;20233;-83
2022/01/16 21:03:03;;;;;;;45.13;28.27;;;;;;;8.07;54.49;100182.69;6735756;29;20283;-83
2022/01/16 21:06:25;;;;;;;30.03;20.20;;;;;;;8.10;55.21;100190.47;6757442;29;20214;-84
2022/01/16 21:09:48;;;;;;;38.23;24.17;;;;;;;8.62;53.63;100180.59;6749981;29;20230;-84
2022/01/16 21:13:11;;;;;;;32.20;20.67;;;;;;;8.52;54.05;100179.84;6764614;29;20217;-84